Airfield :
LOGIN :

Register | Disclaimer

   EN    FR    IT 

 










Legend :    VFR   Marginal VFR   IFR   Intensive IFR   Very Intensive IFR
Visi :
Ceiling :
>= 8 km
>= 3000ft
5 to 8 km
1000 to 3000 ft
1500m to 5 km
500 to 1000 ft
800 to 1500m
200 to 500 ft
< 800m
< 200 ft
Symbols :   Thunderstorms  Fog  Heavy snow  Heavy precipitations  Wind > 20 kt
SIGMETs :     Misc.  Thunderstorms  Icing  Turbulence  Mountain Waves  Volcanic Ashes







- Airport Elevation : 297 ft
- IATA code : UIP
- Download approach charts


LFRQ - Quimper Pluguffan

CURRENT METAR :
  • 210500Z AUTO 32006KT 9999 OVC037 06/03 Q1023

EXPIRED METARs :
  • 210430Z AUTO 33007KT 9999 OVC038 06/03 Q1023
  • 210400Z AUTO 33008KT 9999 OVC039 05/03 Q1023
  • 210330Z AUTO 36006KT 9999 OVC040 06/03 Q1023
  • 201500Z AUTO 36013KT 330V030 9999 BKN029 10/04 Q1023 TEMPO 36015G25KT
  • 210300Z AUTO 35006KT 320V020 9999 OVC042 05/03 Q1023
  • 210230Z AUTO 32004KT 9999 FEW046 05/03 Q1024

Expired Forecast.
No reported NOTAMs for that airfield.



MET'MAP, your aeronautical weather chart ! - Copyright ORBIFLY December 2007 - Disclaimer

ORBIFLY MET'MAP TEAM :

Programming & Development : Alexandra Zaïnal
Concept & Development : Baudouin d'Aumeries
Co-Development & Prog : Marc-Olivier Méhu
Technical & hardware support : Manuel Goepfert

Contact : metmap@orbifly.com




SOURCES & CREDITS :

   NOAA